.
WxDataArchive / Data Records for 2012-11-06
2012-11-05 November 2012 2012-11-07

Data Records for Tuesday, 06 November 2012

Time	Temp	Chill	HIndex	Humid	Dewpt	 Wind 	HiWind	WindDir	Rain 	Barom 
-----	----	-----	------	-----	-----	------	------	-------	-----	----- 
00:00	27.0	27.0	27.0	84	22.8	0	0	---	0.00	30.156 
00:05	26.9	26.9	26.9	85	23.0	0	0	---	0.00	30.156 
00:10	26.7	26.7	26.7	85	22.8	0	0	---	0.00	30.156 
00:15	26.7	26.7	26.7	85	22.8	0	0	---	0.00	30.152 
00:20	26.6	26.6	26.6	85	22.7	0	0	---	0.00	30.152 
00:25	26.6	26.6	26.6	85	22.7	0	0	---	0.00	30.152 
00:30	26.4	26.4	26.4	85	22.5	0	0	---	0.00	30.148 
00:35	26.3	26.3	26.3	86	22.7	0	0	---	0.00	30.148 
00:40	26.3	26.3	26.3	86	22.7	0	0	---	0.00	30.148 
00:45	26.3	26.3	26.3	86	22.7	0	0	---	0.00	30.147 
00:50	26.3	26.3	26.3	86	22.7	0	0	---	0.00	30.147 
00:55	26.1	26.1	26.1	86	22.5	0	0	---	0.00	30.147 
01:00	26.0	26.0	26.0	86	22.4	0	0	---	0.00	30.142 
01:05	26.0	26.0	26.0	86	22.4	0	0	---	0.00	30.142 
01:10	25.8	25.8	25.8	87	22.5	0	0	---	0.00	30.142 
01:15	25.8	25.8	25.8	87	22.5	0	0	---	0.00	30.135 
01:20	25.7	25.7	25.7	87	22.4	0	0	---	0.00	30.135 
01:25	25.7	25.7	25.7	87	22.4	0	0	---	0.00	30.135 
01:30	25.7	25.7	25.7	87	22.4	0	0	---	0.00	30.132 
01:35	25.7	25.7	25.7	87	22.4	0	0	---	0.00	30.132 
01:40	25.6	25.6	25.6	87	22.3	0	0	---	0.00	30.132 
01:45	25.4	25.4	25.4	87	22.1	0	0	---	0.00	30.131 
01:50	25.3	25.3	25.3	87	22.0	0	0	---	0.00	30.131 
01:55	25.1	25.1	25.1	87	21.8	0	0	---	0.00	30.131 
02:00	25.1	25.1	25.1	88	22.1	0	0	---	0.00	30.130 
02:05	25.0	25.0	25.0	88	22.0	0	0	---	0.00	30.130 
02:10	25.0	25.0	25.0	88	22.0	0	0	---	0.00	30.130 
02:15	24.8	24.8	24.8	88	21.8	0	0	---	0.00	30.130 
02:20	24.8	24.8	24.8	88	21.8	0	0	---	0.00	30.130 
02:25	24.8	24.8	24.8	88	21.8	0	0	---	0.00	30.130 
02:30	24.7	24.7	24.7	88	21.7	0	0	---	0.00	30.133 
02:35	24.7	24.7	24.7	88	21.7	0	0	---	0.00	30.133 
02:40	24.7	24.7	24.7	88	21.7	0	0	---	0.00	30.133 
02:45	24.5	24.5	24.5	88	21.5	0	0	---	0.00	30.130 
02:50	24.4	24.4	24.4	88	21.4	0	0	---	0.00	30.130 
02:55	24.4	24.4	24.4	88	21.4	0	0	---	0.00	30.130 
03:00	24.4	24.4	24.4	88	21.4	0	0	---	0.00	30.128 
03:05	24.2	24.2	24.2	88	21.2	0	0	---	0.00	30.128 
03:10	24.2	24.2	24.2	88	21.2	0	0	---	0.00	30.128 
03:15	24.2	24.2	24.2	89	21.4	0	0	---	0.00	30.125 
03:20	24.2	24.2	24.2	89	21.4	0	0	---	0.00	30.125 
03:25	24.1	24.1	24.1	89	21.3	0	0	---	0.00	30.125 
03:30	24.1	24.1	24.1	89	21.3	0	0	---	0.00	30.123 
03:35	23.9	23.9	23.9	89	21.1	0	0	---	0.00	30.123 
03:40	23.9	23.9	23.9	89	21.1	0	0	---	0.00	30.123 
03:45	23.9	23.9	23.9	89	21.1	0	0	---	0.00	30.122 
03:50	23.9	23.9	23.9	89	21.1	0	0	---	0.00	30.122 
03:55	23.9	23.9	23.9	89	21.1	0	0	---	0.00	30.122 
04:00	23.8	23.8	23.8	89	21.0	0	0	---	0.00	30.123 
04:05	23.8	23.8	23.8	89	21.0	0	0	---	0.00	30.123 
04:10	23.8	23.8	23.8	89	21.0	0	0	---	0.00	30.123 
04:15	23.8	23.8	23.8	89	21.0	0	0	---	0.00	30.126 
04:20	23.6	23.6	23.6	89	20.8	0	0	---	0.00	30.126 
04:25	23.6	23.6	23.6	89	20.8	0	0	---	0.00	30.126 
04:30	23.5	23.5	23.5	89	20.7	0	0	---	0.00	30.128 
04:35	23.5	23.5	23.5	89	20.7	0	0	---	0.00	30.128 
04:40	23.3	23.3	23.3	89	20.5	0	0	---	0.00	30.128 
04:45	23.2	23.2	23.2	89	20.4	0	0	---	0.00	30.131 
04:50	23.2	23.2	23.2	90	20.7	0	0	---	0.00	30.131 
04:55	23.3	23.3	23.3	90	20.8	0	0	---	0.00	30.131 
05:00	23.3	23.3	23.3	90	20.8	0	0	---	0.00	30.127 
05:05	23.3	23.3	23.3	90	20.8	0	0	---	0.00	30.127 
05:10	23.2	23.2	23.2	90	20.7	0	0	---	0.00	30.127 
05:15	23.0	23.0	23.0	90	20.5	0	0	---	0.00	30.122 
05:20	23.0	23.0	23.0	90	20.5	0	0	---	0.00	30.122 
05:25	22.9	22.9	22.9	90	20.4	0	0	---	0.00	30.122 
05:30	22.9	22.9	22.9	90	20.4	0	0	---	0.00	30.117 
05:35	22.7	22.7	22.7	90	20.2	0	0	---	0.00	30.117 
05:40	22.7	22.7	22.7	90	20.2	0	0	---	0.00	30.117 
05:45	22.7	22.7	22.7	90	20.2	0	0	---	0.00	30.111 
05:50	22.5	22.5	22.5	90	20.0	0	0	---	0.00	30.111 
05:55	22.7	22.7	22.7	90	20.2	0	0	---	0.00	30.111 
06:00	22.9	22.9	22.9	91	20.7	0	0	---	0.00	30.105 
06:05	23.0	23.0	23.0	91	20.8	0	0	---	0.00	30.105 
06:10	23.2	23.2	23.2	91	21.0	0	0	---	0.00	30.105 
06:15	23.3	23.3	23.3	91	21.1	0	0	---	0.00	30.098 
06:20	23.6	23.6	23.6	91	21.4	0	1	90	0.00	30.098 
06:25	24.2	24.2	24.2	92	22.2	0	1	90	0.00	30.098 
06:30	24.5	24.5	24.5	92	22.5	0	1	90	0.00	30.093 
06:35	24.8	24.8	24.8	92	22.8	0	0	---	0.00	30.093 
06:40	25.0	25.0	25.0	91	22.8	0	0	---	0.00	30.093 
06:45	25.0	25.0	25.0	91	22.8	0	1	90	0.00	30.091 
06:50	25.0	25.0	25.0	91	22.8	0	0	---	0.00	30.091 
06:55	24.7	24.7	24.7	91	22.5	0	0	---	0.00	30.091 
07:00	24.5	24.5	24.5	91	22.3	0	0	---	0.00	30.092 
07:05	24.4	24.4	24.4	91	22.2	0	0	---	0.00	30.092 
07:10	24.1	24.1	24.1	91	21.9	0	0	---	0.00	30.092 
07:15	23.9	23.9	23.9	91	21.7	0	0	---	0.00	30.102 
07:20	23.8	23.8	23.8	91	21.6	0	0	---	0.00	30.102 
07:25	23.6	23.6	23.6	91	21.4	0	0	---	0.00	30.102 
07:30	23.5	23.5	23.5	91	21.3	0	0	---	0.00	30.109 
07:35	23.5	23.5	23.5	91	21.3	0	0	---	0.00	30.109 
07:40	23.5	23.5	23.5	91	21.3	0	0	---	0.00	30.109 
07:45	23.6	23.6	23.6	91	21.4	0	0	---	0.00	30.111 
07:50	23.6	23.6	23.6	91	21.4	0	0	---	0.00	30.111 
07:55	23.6	23.6	23.6	91	21.4	0	0	---	0.00	30.111 
08:00	23.9	23.9	23.9	91	21.7	0	0	---	0.00	30.114 
08:05	24.4	24.4	24.4	91	22.2	0	0	---	0.00	30.114 
08:10	25.0	25.0	25.0	92	23.0	0	1	45	0.00	30.114 
08:15	25.7	25.7	25.7	92	23.7	0	0	---	0.00	30.116 
08:20	26.1	26.1	26.1	92	24.1	0	1	45	0.00	30.116 
08:25	27.0	27.0	27.0	92	25.0	0	1	45	0.00	30.116 
08:30	27.5	27.5	27.5	92	25.5	0	0	---	0.00	30.117 
08:35	28.2	28.2	28.2	92	26.2	0	2	45	0.00	30.117 
08:40	28.8	28.8	28.8	92	26.8	0	1	45	0.00	30.117 
08:45	29.3	29.3	29.3	91	27.0	0	1	45	0.00	30.116 
08:50	29.7	29.7	29.7	90	27.1	0	2	45	0.00	30.116 
08:55	30.1	30.1	30.1	88	27.0	0	2	45	0.00	30.116 
09:00	30.6	30.6	30.6	87	27.2	0	2	45	0.00	30.111 
09:05	31.0	31.0	31.0	86	27.3	0	1	45	0.00	30.111 
09:10	31.5	31.5	31.5	85	27.5	1	2	45	0.00	30.111 
09:15	31.8	31.8	31.8	84	27.5	2	4	45	0.00	30.104 
09:20	32.1	32.1	32.1	84	27.8	1	4	45	0.00	30.104 
09:25	32.4	32.4	32.4	83	27.8	2	4	90	0.00	30.104 
09:30	32.8	32.8	32.8	82	27.9	1	2	90	0.00	30.101 
09:35	33.1	33.1	33.1	81	27.9	1	3	90	0.00	30.101 
09:40	33.2	33.2	33.2	80	27.7	1	3	45	0.00	30.101 
09:45	33.5	33.5	33.5	80	28.0	1	2	45	0.00	30.101 
09:50	33.8	33.8	33.8	79	28.0	1	4	90	0.00	30.101 
09:55	34.4	34.4	34.4	78	28.3	1	5	90	0.00	30.101 
10:00	34.6	34.6	34.6	77	28.1	1	3	90	0.00	30.096 
10:05	35.0	35.0	35.0	77	28.5	1	3	90	0.00	30.096 
10:10	35.2	35.2	35.2	77	28.7	1	5	90	0.00	30.096 
10:15	35.5	35.5	35.5	77	29.0	1	4	112	0.00	30.090 
10:20	35.9	35.9	35.9	77	29.4	1	4	112	0.00	30.090 
10:25	36.0	36.0	36.0	75	28.9	1	4	112	0.00	30.090 
10:30	36.3	36.3	36.3	75	29.1	2	5	112	0.00	30.086 
10:35	36.5	36.5	36.5	75	29.3	2	6	112	0.00	30.086 
10:40	36.6	36.6	36.6	75	29.4	1	3	112	0.00	30.086 
10:45	37.0	37.0	37.0	74	29.5	1	2	112	0.00	30.089 
10:50	37.3	37.3	37.3	73	29.5	1	2	112	0.00	30.089 
10:55	37.6	37.6	37.6	73	29.7	1	5	112	0.00	30.089 
11:00	38.0	38.0	38.0	73	30.1	1	4	90	0.00	30.085 
11:05	38.3	38.3	38.3	72	30.1	1	5	90	0.00	30.085 
11:10	38.5	38.5	38.5	71	29.9	2	5	90	0.00	30.085 
11:15	38.8	38.8	38.8	70	29.9	1	3	90	0.00	30.081 
11:20	38.9	38.9	38.9	71	30.3	1	4	90	0.00	30.081 
11:25	39.2	39.2	39.2	69	29.9	2	5	90	0.00	30.081 
11:30	39.6	39.6	39.6	69	30.3	0	3	90	0.00	30.072 
11:35	40.1	40.1	40.1	67	30.0	1	5	90	0.00	30.072 
11:40	40.3	40.3	40.3	66	29.9	1	3	90	0.00	30.072 
11:45	40.6	40.6	40.6	66	30.1	1	3	90	0.00	30.063 
11:50	40.9	40.9	40.9	65	30.1	0	2	90	0.00	30.063 
11:55	41.2	41.2	41.2	65	30.3	1	2	90	0.00	30.063 
12:00	41.5	41.5	41.5	65	30.6	0	2	90	0.00	30.051 
12:05	41.8	41.8	41.8	64	30.5	1	4	90	0.00	30.051 
12:10	42.1	42.1	42.1	64	30.8	1	5	90	0.00	30.051 
12:15	42.3	42.3	42.3	62	30.2	2	5	90	0.00	30.037 
12:20	42.3	42.3	42.3	62	30.2	1	4	112	0.00	30.037 
12:25	42.5	42.5	42.5	62	30.4	1	3	112	0.00	30.037 
12:30	42.6	42.6	42.6	61	30.1	1	4	90	0.00	30.033 
12:35	42.8	42.8	42.8	60	29.9	1	4	90	0.00	30.033 
12:40	43.1	43.1	43.1	60	30.2	1	4	68	0.00	30.033 
12:45	43.6	43.6	43.6	60	30.6	0	4	68	0.00	30.030 
12:50	43.8	43.8	43.8	58	30.0	1	3	68	0.00	30.030 
12:55	43.9	43.9	43.9	59	30.5	1	5	68	0.00	30.030 
13:00	43.9	43.9	43.9	57	29.7	2	5	90	0.00	30.018 
13:05	43.6	43.6	43.6	58	29.8	1	3	112	0.00	30.018 
13:10	43.6	43.6	43.6	57	29.4	1	4	135	0.00	30.018 
13:15	43.6	43.6	43.6	57	29.4	2	4	112	0.00	30.019 
13:20	43.5	43.5	43.5	57	29.3	2	5	90	0.00	30.019 
13:25	43.8	43.8	43.8	58	30.0	1	4	90	0.00	30.019 
13:30	44.1	44.1	44.1	57	29.9	1	4	90	0.00	30.009 
13:35	44.1	44.1	44.1	56	29.4	1	4	90	0.00	30.009 
13:40	44.1	44.1	44.1	56	29.4	1	3	90	0.00	30.009 
13:45	44.2	44.2	44.2	56	29.5	1	4	90	0.00	30.004 
13:50	44.6	44.6	44.6	55	29.4	1	4	90	0.00	30.004 
13:55	44.8	44.8	44.8	54	29.2	1	4	112	0.00	30.004 
14:00	44.6	44.6	44.6	54	29.0	1	3	112	0.00	30.000 
14:05	44.6	44.6	44.6	56	29.9	0	1	112	0.00	30.000 
14:10	44.6	44.6	44.6	54	29.0	3	9	90	0.00	30.000 
14:15	44.5	44.5	44.5	54	28.9	1	3	90	0.00	29.997 
14:20	44.8	44.8	44.8	54	29.2	2	5	90	0.00	29.997 
14:25	45.1	45.1	45.1	54	29.5	1	3	112	0.00	29.997 
14:30	45.1	45.1	45.1	53	29.0	0	2	112	0.00	29.990 
14:35	44.8	44.8	44.8	53	28.7	1	4	112	0.00	29.990 
14:40	44.5	44.5	44.5	54	28.9	1	5	112	0.00	29.990 
14:45	44.5	44.5	44.5	54	28.9	0	1	112	0.00	29.986 
14:50	44.6	44.6	44.6	54	29.0	0	1	112	0.00	29.986 
14:55	45.1	45.1	45.1	55	29.9	0	0	---	0.00	29.986 
15:00	45.4	45.4	45.4	52	28.8	0	2	112	0.00	29.982 
15:05	45.7	45.7	45.7	52	29.1	1	3	112	0.00	29.982 
15:10	46.0	46.0	46.0	53	29.8	1	3	90	0.00	29.982 
15:15	46.0	46.0	46.0	50	28.4	1	6	90	0.00	29.973 
15:20	45.7	45.7	45.7	51	28.6	1	4	90	0.00	29.973 
15:25	45.5	45.5	45.5	52	28.9	2	6	68	0.00	29.973 
15:30	45.4	45.4	45.4	51	28.3	1	3	90	0.00	29.978 
15:35	45.5	45.5	45.5	52	28.9	0	2	90	0.00	29.978 
15:40	45.7	45.7	45.7	53	29.6	0	2	90	0.00	29.978 
15:45	45.7	45.7	45.7	52	29.1	1	3	90	0.00	29.974 
15:50	45.5	45.5	45.5	52	28.9	1	4	90	0.00	29.974 
15:55	45.4	45.4	45.4	52	28.8	1	4	90	0.00	29.974 
16:00	45.2	45.2	45.2	52	28.6	1	3	112	0.00	29.973 
16:05	45.1	45.1	45.1	52	28.5	0	3	112	0.00	29.973 
16:10	45.1	45.1	45.1	53	29.0	1	4	112	0.00	29.973 
16:15	44.9	44.9	44.9	53	28.8	2	4	112	0.00	29.972 
16:20	44.8	44.8	44.8	53	28.7	1	3	112	0.00	29.972 
16:25	44.8	44.8	44.8	53	28.7	0	2	112	0.00	29.972 
16:30	44.6	44.6	44.6	53	28.5	1	3	112	0.00	29.971 
16:35	44.6	44.6	44.6	53	28.5	2	5	112	0.00	29.971 
16:40	44.5	44.5	44.5	54	28.9	2	5	90	0.00	29.971 
16:45	44.3	44.3	44.3	54	28.7	1	3	90	0.00	29.971 
16:50	44.2	44.2	44.2	55	29.1	0	2	90	0.00	29.971 
16:55	44.1	44.1	44.1	55	29.0	1	3	90	0.00	29.971 
17:00	43.8	43.8	43.8	55	28.7	1	3	90	0.00	29.966 
17:05	43.6	43.6	43.6	56	29.0	2	5	90	0.00	29.966 
17:10	43.3	43.3	43.3	56	28.7	1	4	90	0.00	29.966 
17:15	43.2	43.2	43.2	57	29.0	1	2	90	0.00	29.968 
17:20	42.9	42.9	42.9	58	29.2	1	4	90	0.00	29.968 
17:25	42.6	42.6	42.6	59	29.3	1	3	90	0.00	29.968 
17:30	42.2	42.2	42.2	60	29.3	1	4	90	0.00	29.971 
17:35	41.8	41.8	41.8	61	29.4	0	3	90	0.00	29.971 
17:40	41.3	41.3	41.3	62	29.3	0	3	90	0.00	29.971 
17:45	40.9	40.9	40.9	63	29.3	1	2	90	0.00	29.973 
17:50	40.6	40.6	40.6	64	29.4	1	3	90	0.00	29.973 
17:55	40.3	40.3	40.3	65	29.5	0	2	90	0.00	29.973 
18:00	40.1	40.1	40.1	65	29.3	1	2	90	0.00	29.974 
18:05	39.8	39.8	39.8	65	29.0	1	3	68	0.00	29.974 
18:10	39.6	39.6	39.6	66	29.2	1	3	68	0.00	29.974 
18:15	39.6	39.6	39.6	66	29.2	1	3	68	0.00	29.974 
18:20	39.6	39.6	39.6	67	29.6	1	4	68	0.00	29.974 
18:25	39.6	39.6	39.6	67	29.6	1	3	68	0.00	29.974 
18:30	39.6	39.6	39.6	66	29.2	2	4	68	0.00	29.976 
18:35	39.6	39.6	39.6	66	29.2	2	4	68	0.00	29.976 
18:40	39.6	39.6	39.6	67	29.6	1	4	68	0.00	29.976 
18:45	39.6	39.6	39.6	67	29.6	1	3	68	0.00	29.978 
18:50	39.6	39.6	39.6	67	29.6	2	5	68	0.00	29.978 
18:55	39.6	39.6	39.6	67	29.6	2	5	68	0.00	29.978 
19:00	39.6	39.6	39.6	67	29.6	1	3	68	0.00	29.978 
19:05	39.6	39.6	39.6	67	29.6	1	2	68	0.00	29.978 
19:10	39.6	39.6	39.6	68	29.9	1	3	68	0.00	29.978 
19:15	39.5	39.5	39.5	68	29.8	1	3	68	0.00	29.976 
19:20	39.5	39.5	39.5	68	29.8	1	4	68	0.00	29.976 
19:25	39.5	39.5	39.5	67	29.5	2	4	90	0.00	29.976 
19:30	39.5	39.5	39.5	67	29.5	2	4	90	0.00	29.976 
19:35	39.6	39.6	39.6	66	29.2	3	7	90	0.00	29.976 
19:40	39.6	39.6	39.6	66	29.2	2	5	90	0.00	29.976 
19:45	39.8	39.8	39.8	65	29.0	2	6	68	0.00	29.976 
19:50	39.8	39.8	39.8	65	29.0	2	5	90	0.00	29.976 
19:55	39.8	39.8	39.8	65	29.0	2	5	90	0.00	29.976 
20:00	39.8	39.8	39.8	65	29.0	1	3	68	0.00	29.976 
20:05	39.8	39.8	39.8	65	29.0	2	4	68	0.00	29.976 
20:10	39.8	39.8	39.8	65	29.0	2	5	68	0.00	29.976 
20:15	39.6	39.6	39.6	65	28.8	1	4	90	0.00	29.970 
20:20	39.6	39.6	39.6	65	28.8	2	6	90	0.00	29.970 
20:25	39.6	39.6	39.6	65	28.8	1	4	90	0.00	29.970 
20:30	39.6	39.6	39.6	65	28.8	2	6	90	0.00	29.969 
20:35	39.6	39.6	39.6	65	28.8	2	9	90	0.00	29.969 
20:40	39.6	39.6	39.6	65	28.8	2	6	68	0.00	29.969 
20:45	39.6	39.6	39.6	65	28.8	1	5	90	0.00	29.970 
20:50	39.6	39.6	39.6	64	28.4	2	5	90	0.00	29.970 
20:55	39.6	39.6	39.6	65	28.8	1	3	68	0.00	29.970 
21:00	39.6	39.6	39.6	64	28.4	2	4	68	0.00	29.971 
21:05	39.6	39.6	39.6	65	28.8	1	4	68	0.00	29.971 
21:10	39.5	39.5	39.5	64	28.3	2	5	90	0.00	29.971 
21:15	39.5	39.5	39.5	64	28.3	1	3	90	0.00	29.970 
21:20	39.5	39.5	39.5	64	28.3	2	5	90	0.00	29.970 
21:25	39.3	39.3	39.3	65	28.5	2	4	90	0.00	29.970 
21:30	39.2	39.2	39.2	65	28.4	3	6	90	0.00	29.971 
21:35	38.9	38.9	38.9	65	28.2	3	6	90	0.00	29.971 
21:40	38.5	38.5	38.5	66	28.1	3	7	90	0.00	29.971 
21:45	38.3	38.3	38.3	67	28.3	3	7	68	0.00	29.972 
21:50	38.0	38.0	38.0	68	28.4	3	9	90	0.00	29.972 
21:55	37.9	37.9	37.9	68	28.3	2	6	90	0.00	29.972 
22:00	37.8	37.8	37.8	69	28.6	3	5	68	0.00	29.971 
22:05	37.6	37.6	37.6	69	28.4	2	5	90	0.00	29.971 
22:10	37.3	37.3	37.3	70	28.4	2	6	90	0.00	29.971 
22:15	37.2	37.2	37.2	70	28.3	3	7	90	0.00	29.966 
22:20	37.0	37.0	37.0	71	28.5	2	6	68	0.00	29.966 
22:25	37.0	37.0	37.0	72	28.8	2	5	68	0.00	29.966 
22:30	36.9	36.9	36.9	72	28.7	2	5	68	0.00	29.964 
22:35	36.9	36.9	36.9	73	29.1	1	4	90	0.00	29.964 
22:40	36.9	36.9	36.9	73	29.1	1	3	90	0.00	29.964 
22:45	36.8	36.8	36.8	74	29.3	1	4	90	0.00	29.957 
22:50	36.6	36.6	36.6	74	29.1	2	5	90	0.00	29.957 
22:55	36.6	36.6	36.6	74	29.1	1	4	68	0.00	29.957 
23:00	36.6	36.6	36.6	74	29.1	2	6	68	0.00	29.954 
23:05	36.6	36.6	36.6	74	29.1	2	4	68	0.00	29.954 
23:10	36.5	36.5	36.5	75	29.3	1	4	68	0.00	29.954 
23:15	36.5	36.5	36.5	75	29.3	2	5	90	0.00	29.948 
23:20	36.5	36.5	36.5	75	29.3	2	5	90	0.00	29.948 
23:25	36.5	36.5	36.5	75	29.3	1	4	90	0.00	29.948 
23:30	36.5	36.5	36.5	75	29.3	1	3	90	0.00	29.947 
23:35	36.5	36.5	36.5	75	29.3	1	5	90	0.00	29.947 
23:40	36.5	36.5	36.5	76	29.7	1	3	22	0.00	29.947 
23:45	36.3	36.3	36.3	76	29.5	1	3	22	0.00	29.946 
23:50	36.3	36.3	36.3	76	29.5	1	3	22	0.00	29.946 
23:55	36.2	36.2	36.2	77	29.7	1	3	22	0.00	29.946 

CoCoRaHS
IN-AL-39
A2 Web Hosting
Creative Commons License
GoDaddy
search engine by freefind advanced

loaded 2018-11-12 19:57:38 • last modified 2010-11-18 10:43:29
Privacy PolicyDisclaimer
• wx.awcolley.com is powered by PmWiki v.2002016 •
• all content (unless otherwise noted) © 2018 A W Colley